sensor_id;sensor_type;location;lat;lon;timestamp;pressure;altitude;pressure_sealevel;temperature;humidity
64230;BME280;50547;49.498;0.092;2023-11-25T11:38:43;1018;;;9.08;63.57
64230;BME280;50547;49.498;0.092;2023-11-25T11:41:28;1018;;;9.14;63.58
64230;BME280;50547;49.498;0.092;2023-11-25T11:44:00;1018;;;8.97;64.09
64230;BME280;50547;49.498;0.092;2023-11-25T11:46:30;1018;;;9.13;64.42
64230;BME280;50547;49.498;0.092;2023-11-25T11:49:06;1018;;;9.12;64.84
64230;BME280;50547;49.498;0.092;2023-11-25T11:51:36;1018;;;9.11;63.97
64230;BME280;50547;49.498;0.092;2023-11-25T11:54:23;1018;;;9.08;62.74
64230;BME280;50547;49.498;0.092;2023-11-25T11:57:01;1018;;;9.05;61.69
64230;BME280;50547;49.498;0.092;2023-11-25T12:00:04;1018;;;8.94;62.43
64230;BME280;50547;49.498;0.092;2023-11-25T12:02:33;1018;;;9.14;62.04
64230;BME280;50547;49.498;0.092;2023-11-25T12:05:03;1018;;;9.09;61.56
64230;BME280;50547;49.498;0.092;2023-11-25T12:07:32;1018;;;9.06;61.08
64230;BME280;50547;49.498;0.092;2023-11-25T12:10:01;1018;;;9.00;60.16
64230;BME280;50547;49.498;0.092;2023-11-25T12:12:30;1018;;;9.62;61.36
64230;BME280;50547;49.498;0.092;2023-11-25T12:14:59;1018;;;9.54;59.42
64230;BME280;50547;49.498;0.092;2023-11-25T12:17:28;1018;;;9.76;59.33
64230;BME280;50547;49.498;0.092;2023-11-25T12:19:58;1018;;;9.61;58.61
64230;BME280;50547;49.498;0.092;2023-11-25T12:22:28;1018;;;9.72;58.24
64230;BME280;50547;49.498;0.092;2023-11-25T12:24:57;1018;;;9.91;59.04
64230;BME280;50547;49.498;0.092;2023-11-25T12:27:28;1018;;;10.21;58.50
64230;BME280;50547;49.498;0.092;2023-11-25T12:29:59;1018;;;10.50;58.70
64230;BME280;50547;49.498;0.092;2023-11-25T12:32:29;1018;;;9.73;61.71
64230;BME280;50547;49.498;0.092;2023-11-25T12:34:58;1018;;;9.36;63.71
64230;BME280;50547;49.498;0.092;2023-11-25T12:37:27;1018;;;8.84;65.57
64230;BME280;50547;49.498;0.092;2023-11-25T12:39:56;1018;;;8.72;65.72
64230;BME280;50547;49.498;0.092;2023-11-25T12:42:25;1018;;;8.83;66.05
64230;BME280;50547;49.498;0.092;2023-11-25T12:44:54;1018;;;8.98;65.69
64230;BME280;50547;49.498;0.092;2023-11-25T12:47:23;1018;;;9.07;65.92
64230;BME280;50547;49.498;0.092;2023-11-25T12:50:02;1018;;;9.23;65.52
64230;BME280;50547;49.498;0.092;2023-11-25T12:52:31;1018;;;9.27;64.72
64230;BME280;50547;49.498;0.092;2023-11-25T12:55:00;1018;;;9.23;64.33
64230;BME280;50547;49.498;0.092;2023-11-25T12:57:30;1018;;;8.99;64.17
64230;BME280;50547;49.498;0.092;2023-11-25T13:00:06;1018;;;9.00;64.44
64230;BME280;50547;49.498;0.092;2023-11-25T13:02:35;1018;;;8.95;63.17
64230;BME280;50547;49.498;0.092;2023-11-25T13:05:05;1018;;;9.03;62.86
64230;BME280;50547;49.498;0.092;2023-11-25T13:07:34;1018;;;8.85;62.40
64230;BME280;50547;49.498;0.092;2023-11-25T13:10:04;1018;;;8.99;63.05
64230;BME280;50547;49.498;0.092;2023-11-25T13:12:33;1018;;;8.99;63.03
64230;BME280;50547;49.498;0.092;2023-11-25T13:15:02;1018;;;9.08;64.13
64230;BME280;50547;49.498;0.092;2023-11-25T13:17:32;1018;;;9.11;64.57
64230;BME280;50547;49.498;0.092;2023-11-25T13:20:01;1018;;;8.95;64.05
64230;BME280;50547;49.498;0.092;2023-11-25T13:22:30;1018;;;8.86;63.75
64230;BME280;50547;49.498;0.092;2023-11-25T13:24:59;1018;;;8.93;63.25
64230;BME280;50547;49.498;0.092;2023-11-25T13:27:28;1018;;;8.96;62.65
64230;BME280;50547;49.498;0.092;2023-11-25T13:29:57;1018;;;8.67;62.86
64230;BME280;50547;49.498;0.092;2023-11-25T13:32:26;1018;;;9.04;62.72
64230;BME280;50547;49.498;0.092;2023-11-25T13:34:55;1018;;;8.96;61.55
64230;BME280;50547;49.498;0.092;2023-11-25T13:37:24;1018;;;9.04;62.93
64230;BME280;50547;49.498;0.092;2023-11-25T13:39:54;1018;;;9.01;61.56
64230;BME280;50547;49.498;0.092;2023-11-25T13:42:23;1018;;;9.09;61.63
64230;BME280;50547;49.498;0.092;2023-11-25T13:44:52;1018;;;8.97;60.49
64230;BME280;50547;49.498;0.092;2023-11-25T13:47:21;1018;;;9.15;61.55
64230;BME280;50547;49.498;0.092;2023-11-25T13:49:50;1018;;;9.15;60.31
64230;BME280;50547;49.498;0.092;2023-11-25T13:52:20;1018;;;9.44;60.40
64230;BME280;50547;49.498;0.092;2023-11-25T13:54:49;1018;;;9.02;60.21
64230;BME280;50547;49.498;0.092;2023-11-25T13:57:18;1018;;;8.88;60.28
64230;BME280;50547;49.498;0.092;2023-11-25T13:59:47;1018;;;9.12;60.93
64230;BME280;50547;49.498;0.092;2023-11-25T14:02:16;1018;;;9.00;60.59
64230;BME280;50547;49.498;0.092;2023-11-25T14:04:45;1018;;;8.98;60.84
64230;BME280;50547;49.498;0.092;2023-11-25T14:07:14;1018;;;8.99;62.08
64230;BME280;50547;49.498;0.092;2023-11-25T14:09:43;1018;;;8.97;62.82
64230;BME280;50547;49.498;0.092;2023-11-25T14:12:12;1018;;;8.95;61.88
64230;BME280;50547;49.498;0.092;2023-11-25T14:14:41;1018;;;8.90;62.61
64230;BME280;50547;49.498;0.092;2023-11-25T14:17:10;1018;;;8.76;63.33
64230;BME280;50547;49.498;0.092;2023-11-25T14:19:39;1018;;;8.57;63.63
64230;BME280;50547;49.498;0.092;2023-11-25T14:22:09;1018;;;8.57;63.49
64230;BME280;50547;49.498;0.092;2023-11-25T14:24:38;1018;;;8.44;62.90
64230;BME280;50547;49.498;0.092;2023-11-25T14:27:07;1018;;;8.37;62.56
64230;BME280;50547;49.498;0.092;2023-11-25T14:29:36;1018;;;8.47;62.82
64230;BME280;50547;49.498;0.092;2023-11-25T14:32:05;1018;;;8.75;62.58
64230;BME280;50547;49.498;0.092;2023-11-25T14:34:35;1018;;;8.89;62.93
64230;BME280;50547;49.498;0.092;2023-11-25T14:37:04;1018;;;8.61;62.81
64230;BME280;50547;49.498;0.092;2023-11-25T14:39:33;1018;;;8.75;63.76
64230;BME280;50547;49.498;0.092;2023-11-25T14:42:02;1018;;;8.81;63.32
64230;BME280;50547;49.498;0.092;2023-11-25T14:44:31;1018;;;8.85;62.71
64230;BME280;50547;49.498;0.092;2023-11-25T14:47:00;1018;;;8.89;62.68
64230;BME280;50547;49.498;0.092;2023-11-25T14:49:29;1018;;;8.76;63.42
64230;BME280;50547;49.498;0.092;2023-11-25T14:51:59;1018;;;8.58;63.35
64230;BME280;50547;49.498;0.092;2023-11-25T14:54:28;1018;;;8.67;63.47
64230;BME280;50547;49.498;0.092;2023-11-25T14:56:57;1018;;;8.57;62.88
64230;BME280;50547;49.498;0.092;2023-11-25T14:59:26;1018;;;8.57;63.33
64230;BME280;50547;49.498;0.092;2023-11-25T15:01:55;1018;;;8.73;63.91
64230;BME280;50547;49.498;0.092;2023-11-25T15:04:24;1018;;;8.56;63.16
64230;BME280;50547;49.498;0.092;2023-11-25T15:06:53;1018;;;8.57;63.11
64230;BME280;50547;49.498;0.092;2023-11-25T15:09:23;1018;;;8.53;62.93
64230;BME280;50547;49.498;0.092;2023-11-25T15:11:52;1018;;;8.43;63.17
64230;BME280;50547;49.498;0.092;2023-11-25T15:14:21;1018;;;8.41;63.20
64230;BME280;50547;49.498;0.092;2023-11-25T15:16:51;1018;;;8.48;63.22
64230;BME280;50547;49.498;0.092;2023-11-25T15:19:20;1017;;;8.48;63.31
64230;BME280;50547;49.498;0.092;2023-11-25T15:21:51;1018;;;8.67;63.32
64230;BME280;50547;49.498;0.092;2023-11-25T15:24:21;1018;;;8.42;63.28
64230;BME280;50547;49.498;0.092;2023-11-25T15:26:50;1018;;;8.46;63.49
64230;BME280;50547;49.498;0.092;2023-11-25T15:29:20;1018;;;8.44;64.17
64230;BME280;50547;49.498;0.092;2023-11-25T15:31:49;1018;;;8.59;64.36
64230;BME280;50547;49.498;0.092;2023-11-25T15:34:15;1018;;;8.61;63.75
64230;BME280;50547;49.498;0.092;2023-11-25T15:36:43;1018;;;8.61;62.53
64230;BME280;50547;49.498;0.092;2023-11-25T15:39:12;1018;;;8.58;61.80
64230;BME280;50547;49.498;0.092;2023-11-25T15:41:42;1018;;;8.56;62.01
64230;BME280;50547;49.498;0.092;2023-11-25T15:44:11;1018;;;8.55;62.25
64230;BME280;50547;49.498;0.092;2023-11-25T15:46:41;1018;;;8.53;62.84
64230;BME280;50547;49.498;0.092;2023-11-25T15:49:10;1018;;;8.49;63.36
64230;BME280;50547;49.498;0.092;2023-11-25T15:51:39;1018;;;8.25;63.35
64230;BME280;50547;49.498;0.092;2023-11-25T15:54:08;1018;;;8.26;63.97
64230;BME280;50547;49.498;0.092;2023-11-25T15:56:37;1017;;;8.55;63.62
64230;BME280;50547;49.498;0.092;2023-11-25T15:59:06;1018;;;8.59;63.50
64230;BME280;50547;49.498;0.092;2023-11-25T16:01:35;1018;;;8.42;63.67
64230;BME280;50547;49.498;0.092;2023-11-25T16:04:05;1018;;;8.39;63.68
64230;BME280;50547;49.498;0.092;2023-11-25T16:06:34;1017;;;8.37;63.96
64230;BME280;50547;49.498;0.092;2023-11-25T16:09:02;1017;;;8.46;65.26
64230;BME280;50547;49.498;0.092;2023-11-25T16:11:31;1018;;;8.39;64.47
64230;BME280;50547;49.498;0.092;2023-11-25T16:14:00;1018;;;8.28;63.65
64230;BME280;50547;49.498;0.092;2023-11-25T16:16:29;1018;;;8.24;63.83
64230;BME280;50547;49.498;0.092;2023-11-25T16:18:58;1017;;;8.26;63.35
64230;BME280;50547;49.498;0.092;2023-11-25T16:21:27;1018;;;8.27;63.50
64230;BME280;50547;49.498;0.092;2023-11-25T16:23:56;1018;;;8.19;64.12
64230;BME280;50547;49.498;0.092;2023-11-25T16:26:25;1018;;;8.10;64.49
64230;BME280;50547;49.498;0.092;2023-11-25T16:28:54;1018;;;8.03;64.64
64230;BME280;50547;49.498;0.092;2023-11-25T16:31:23;1018;;;8.04;64.50
64230;BME280;50547;49.498;0.092;2023-11-25T16:33:53;1018;;;8.01;64.76
64230;BME280;50547;49.498;0.092;2023-11-25T16:36:22;1018;;;7.99;64.91
64230;BME280;50547;49.498;0.092;2023-11-25T16:38:51;1018;;;8.11;64.83
64230;BME280;50547;49.498;0.092;2023-11-25T16:41:21;1018;;;8.15;63.91
64230;BME280;50547;49.498;0.092;2023-11-25T16:43:50;1018;;;8.11;64.25
64230;BME280;50547;49.498;0.092;2023-11-25T16:46:19;1018;;;8.10;64.72
64230;BME280;50547;49.498;0.092;2023-11-25T16:48:49;1018;;;8.04;64.53
64230;BME280;50547;49.498;0.092;2023-11-25T16:51:16;1018;;;8.13;64.71
64230;BME280;50547;49.498;0.092;2023-11-25T16:53:45;1018;;;8.09;64.68
64230;BME280;50547;49.498;0.092;2023-11-25T16:56:14;1018;;;8.11;64.29
64230;BME280;50547;49.498;0.092;2023-11-25T16:58:43;1018;;;8.07;64.12
64230;BME280;50547;49.498;0.092;2023-11-25T17:01:12;1018;;;8.08;64.12
64230;BME280;50547;49.498;0.092;2023-11-25T17:03:42;1018;;;7.97;64.21
64230;BME280;50547;49.498;0.092;2023-11-25T17:06:11;1018;;;8.09;64.56
64230;BME280;50547;49.498;0.092;2023-11-25T17:08:40;1018;;;8.18;63.86
64230;BME280;50547;49.498;0.092;2023-11-25T17:11:09;1018;;;8.19;64.02
64230;BME280;50547;49.498;0.092;2023-11-25T17:13:38;1018;;;8.15;63.97
64230;BME280;50547;49.498;0.092;2023-11-25T17:16:07;1018;;;8.16;63.93
64230;BME280;50547;49.498;0.092;2023-11-25T17:18:36;1018;;;8.19;63.97
64230;BME280;50547;49.498;0.092;2023-11-25T17:21:05;1018;;;8.21;64.14
64230;BME280;50547;49.498;0.092;2023-11-25T17:23:34;1018;;;8.30;64.05
64230;BME280;50547;49.498;0.092;2023-11-25T17:26:04;1018;;;8.26;64.59
64230;BME280;50547;49.498;0.092;2023-11-25T17:28:33;1018;;;8.24;64.50
64230;BME280;50547;49.498;0.092;2023-11-25T17:31:02;1018;;;8.33;64.57
64230;BME280;50547;49.498;0.092;2023-11-25T17:33:31;1018;;;8.40;64.65
64230;BME280;50547;49.498;0.092;2023-11-25T17:36:00;1017;;;8.30;63.85
64230;BME280;50547;49.498;0.092;2023-11-25T17:38:29;1018;;;8.27;64.05
64230;BME280;50547;49.498;0.092;2023-11-25T17:40:58;1018;;;8.30;64.98
64230;BME280;50547;49.498;0.092;2023-11-25T17:43:27;1018;;;8.35;65.01
64230;BME280;50547;49.498;0.092;2023-11-25T17:45:56;1018;;;8.18;64.96
64230;BME280;50547;49.498;0.092;2023-11-25T17:48:26;1018;;;8.06;64.94
64230;BME280;50547;49.498;0.092;2023-11-25T17:50:55;1018;;;8.10;65.50
64230;BME280;50547;49.498;0.092;2023-11-25T17:53:24;1018;;;8.19;65.73
64230;BME280;50547;49.498;0.092;2023-11-25T17:55:53;1018;;;8.25;65.92
64230;BME280;50547;49.498;0.092;2023-11-25T17:58:22;1018;;;8.25;65.76
64230;BME280;50547;49.498;0.092;2023-11-25T18:00:51;1018;;;8.24;65.34
64230;BME280;50547;49.498;0.092;2023-11-25T18:03:20;1018;;;8.11;65.64
64230;BME280;50547;49.498;0.092;2023-11-25T18:05:49;1018;;;8.05;65.53
64230;BME280;50547;49.498;0.092;2023-11-25T18:08:18;1018;;;8.01;65.11
64230;BME280;50547;49.498;0.092;2023-11-25T18:10:47;1018;;;8.13;65.10
64230;BME280;50547;49.498;0.092;2023-11-25T18:13:16;1018;;;8.15;65.13
64230;BME280;50547;49.498;0.092;2023-11-25T18:15:46;1018;;;8.01;65.26
64230;BME280;50547;49.498;0.092;2023-11-25T18:18:11;1018;;;7.99;65.19
64230;BME280;50547;49.498;0.092;2023-11-25T18:20:40;1018;;;8.10;65.29
64230;BME280;50547;49.498;0.092;2023-11-25T18:23:09;1018;;;8.19;65.19
64230;BME280;50547;49.498;0.092;2023-11-25T18:25:38;1018;;;8.16;65.45
64230;BME280;50547;49.498;0.092;2023-11-25T18:28:07;1018;;;8.03;65.21
64230;BME280;50547;49.498;0.092;2023-11-25T18:30:37;1018;;;7.95;65.75
64230;BME280;50547;49.498;0.092;2023-11-25T18:33:06;1018;;;8.02;65.70
64230;BME280;50547;49.498;0.092;2023-11-25T18:35:35;1018;;;8.09;65.46
64230;BME280;50547;49.498;0.092;2023-11-25T18:38:04;1018;;;8.04;65.66
64230;BME280;50547;49.498;0.092;2023-11-25T18:40:33;1018;;;8.00;65.87
64230;BME280;50547;49.498;0.092;2023-11-25T18:43:02;1018;;;8.06;65.76
64230;BME280;50547;49.498;0.092;2023-11-25T18:45:31;1018;;;8.03;65.74
64230;BME280;50547;49.498;0.092;2023-11-25T18:48:00;1018;;;7.85;65.26
64230;BME280;50547;49.498;0.092;2023-11-25T18:50:29;1018;;;7.91;65.62
64230;BME280;50547;49.498;0.092;2023-11-25T18:52:59;1018;;;7.99;65.78
64230;BME280;50547;49.498;0.092;2023-11-25T18:55:28;1018;;;8.06;65.82
64230;BME280;50547;49.498;0.092;2023-11-25T18:57:57;1018;;;8.07;66.32
64230;BME280;50547;49.498;0.092;2023-11-25T19:00:26;1018;;;7.85;65.96
64230;BME280;50547;49.498;0.092;2023-11-25T19:02:55;1018;;;7.90;66.11
64230;BME280;50547;49.498;0.092;2023-11-25T19:05:24;1018;;;7.94;65.88
64230;BME280;50547;49.498;0.092;2023-11-25T19:07:53;1018;;;7.94;66.13
64230;BME280;50547;49.498;0.092;2023-11-25T19:10:22;1018;;;7.80;66.56
64230;BME280;50547;49.498;0.092;2023-11-25T19:12:51;1018;;;7.81;67.04
64230;BME280;50547;49.498;0.092;2023-11-25T19:15:20;1018;;;7.91;66.83
64230;BME280;50547;49.498;0.092;2023-11-25T19:18:05;1018;;;7.85;66.23
64230;BME280;50547;49.498;0.092;2023-11-25T19:20:34;1018;;;7.98;66.09
64230;BME280;50547;49.498;0.092;2023-11-25T19:23:03;1018;;;7.78;66.41
64230;BME280;50547;49.498;0.092;2023-11-25T19:25:32;1018;;;7.80;66.17
64230;BME280;50547;49.498;0.092;2023-11-25T19:28:01;1018;;;7.90;66.32
64230;BME280;50547;49.498;0.092;2023-11-25T19:30:30;1018;;;7.91;66.21
64230;BME280;50547;49.498;0.092;2023-11-25T19:32:59;1018;;;7.82;66.75
64230;BME280;50547;49.498;0.092;2023-11-25T19:35:28;1018;;;7.92;66.64
64230;BME280;50547;49.498;0.092;2023-11-25T19:37:57;1018;;;7.85;67.05
64230;BME280;50547;49.498;0.092;2023-11-25T19:40:26;1018;;;7.87;67.01
64230;BME280;50547;49.498;0.092;2023-11-25T19:42:55;1018;;;7.87;67.08
64230;BME280;50547;49.498;0.092;2023-11-25T19:45:24;1018;;;7.87;67.26
64230;BME280;50547;49.498;0.092;2023-11-25T19:47:54;1018;;;7.86;67.29
64230;BME280;50547;49.498;0.092;2023-11-25T19:50:23;1018;;;7.84;66.86
64230;BME280;50547;49.498;0.092;2023-11-25T19:52:52;1018;;;7.79;66.82
64230;BME280;50547;49.498;0.092;2023-11-25T19:55:21;1018;;;7.73;66.81
64230;BME280;50547;49.498;0.092;2023-11-25T19:57:50;1018;;;7.65;66.78
64230;BME280;50547;49.498;0.092;2023-11-25T20:00:19;1018;;;7.66;66.96
64230;BME280;50547;49.498;0.092;2023-11-25T20:02:48;1018;;;7.69;66.78
64230;BME280;50547;49.498;0.092;2023-11-25T20:05:17;1018;;;7.64;66.87
64230;BME280;50547;49.498;0.092;2023-11-25T20:07:46;1018;;;7.65;66.83
64230;BME280;50547;49.498;0.092;2023-11-25T20:10:16;1018;;;7.59;66.73
64230;BME280;50547;49.498;0.092;2023-11-25T20:12:45;1018;;;7.63;66.76
64230;BME280;50547;49.498;0.092;2023-11-25T20:15:14;1018;;;7.69;66.44
64230;BME280;50547;49.498;0.092;2023-11-25T20:17:43;1018;;;7.70;66.43
64230;BME280;50547;49.498;0.092;2023-11-25T20:20:13;1018;;;7.69;65.79
64230;BME280;50547;49.498;0.092;2023-11-25T20:22:42;1018;;;7.66;65.93
64230;BME280;50547;49.498;0.092;2023-11-25T20:25:11;1018;;;7.60;66.07
64230;BME280;50547;49.498;0.092;2023-11-25T20:27:41;1018;;;7.59;65.78
64230;BME280;50547;49.498;0.092;2023-11-25T20:30:07;1018;;;7.56;65.91
64230;BME280;50547;49.498;0.092;2023-11-25T20:32:36;1018;;;7.54;65.58
64230;BME280;50547;49.498;0.092;2023-11-25T20:35:06;1018;;;7.56;65.67
64230;BME280;50547;49.498;0.092;2023-11-25T20:37:35;1018;;;7.59;65.59
64230;BME280;50547;49.498;0.092;2023-11-25T20:40:05;1018;;;7.62;64.79
64230;BME280;50547;49.498;0.092;2023-11-25T20:42:35;1018;;;7.68;64.72
64230;BME280;50547;49.498;0.092;2023-11-25T20:45:05;1018;;;7.59;65.31
64230;BME280;50547;49.498;0.092;2023-11-25T20:47:34;1018;;;7.48;65.68
64230;BME280;50547;49.498;0.092;2023-11-25T20:50:04;1018;;;7.52;65.83
64230;BME280;50547;49.498;0.092;2023-11-25T20:52:33;1018;;;7.52;65.58
64230;BME280;50547;49.498;0.092;2023-11-25T20:55:03;1018;;;7.48;65.59
64230;BME280;50547;49.498;0.092;2023-11-25T20:57:32;1018;;;7.43;65.89
64230;BME280;50547;49.498;0.092;2023-11-25T21:00:02;1018;;;7.63;65.49
64230;BME280;50547;49.498;0.092;2023-11-25T21:02:31;1018;;;7.61;65.48
64230;BME280;50547;49.498;0.092;2023-11-25T21:05:01;1018;;;7.68;65.19
64230;BME280;50547;49.498;0.092;2023-11-25T21:07:42;1018;;;7.63;65.37
64230;BME280;50547;49.498;0.092;2023-11-25T21:10:08;1018;;;7.58;65.42
64230;BME280;50547;49.498;0.092;2023-11-25T21:12:37;1018;;;7.61;65.73
64230;BME280;50547;49.498;0.092;2023-11-25T21:15:07;1018;;;7.57;65.55
64230;BME280;50547;49.498;0.092;2023-11-25T21:17:37;1018;;;7.55;65.67
64230;BME280;50547;49.498;0.092;2023-11-25T21:20:07;1018;;;7.55;65.94
64230;BME280;50547;49.498;0.092;2023-11-25T21:22:36;1018;;;7.52;66.11
64230;BME280;50547;49.498;0.092;2023-11-25T21:25:06;1018;;;7.54;66.05
64230;BME280;50547;49.498;0.092;2023-11-25T21:27:35;1018;;;7.58;65.90
64230;BME280;50547;49.498;0.092;2023-11-25T21:30:03;1018;;;7.66;65.54
64230;BME280;50547;49.498;0.092;2023-11-25T21:32:32;1018;;;7.70;65.31
64230;BME280;50547;49.498;0.092;2023-11-25T21:35:01;1018;;;7.69;65.45
64230;BME280;50547;49.498;0.092;2023-11-25T21:37:30;1018;;;7.66;65.48
64230;BME280;50547;49.498;0.092;2023-11-25T21:40:00;1018;;;7.62;65.01
64230;BME280;50547;49.498;0.092;2023-11-25T21:42:29;1018;;;7.62;64.35
64230;BME280;50547;49.498;0.092;2023-11-25T21:44:58;1018;;;7.71;63.98
64230;BME280;50547;49.498;0.092;2023-11-25T21:47:27;1018;;;7.78;63.85
64230;BME280;50547;49.498;0.092;2023-11-25T21:49:56;1018;;;7.81;63.49
64230;BME280;50547;49.498;0.092;2023-11-25T21:52:25;1018;;;7.68;63.33
64230;BME280;50547;49.498;0.092;2023-11-25T21:54:54;1018;;;7.63;63.75
64230;BME280;50547;49.498;0.092;2023-11-25T21:57:23;1018;;;7.60;63.80
64230;BME280;50547;49.498;0.092;2023-11-25T21:59:53;1018;;;7.72;63.67
64230;BME280;50547;49.498;0.092;2023-11-25T22:02:22;1018;;;7.70;63.83
64230;BME280;50547;49.498;0.092;2023-11-25T22:04:51;1018;;;7.81;63.63
64230;BME280;50547;49.498;0.092;2023-11-25T22:07:20;1018;;;7.83;63.93
64230;BME280;50547;49.498;0.092;2023-11-25T22:09:49;1018;;;7.85;63.97
64230;BME280;50547;49.498;0.092;2023-11-25T22:12:18;1018;;;7.74;64.01
64230;BME280;50547;49.498;0.092;2023-11-25T22:14:47;1018;;;7.70;64.18
64230;BME280;50547;49.498;0.092;2023-11-25T22:17:16;1018;;;7.69;64.24
64230;BME280;50547;49.498;0.092;2023-11-25T22:19:45;1018;;;7.65;64.27
64230;BME280;50547;49.498;0.092;2023-11-25T22:22:14;1018;;;7.79;64.17
64230;BME280;50547;49.498;0.092;2023-11-25T22:24:43;1018;;;7.85;63.95
64230;BME280;50547;49.498;0.092;2023-11-25T22:27:13;1018;;;7.72;64.26
64230;BME280;50547;49.498;0.092;2023-11-25T22:29:42;1018;;;7.71;64.53
64230;BME280;50547;49.498;0.092;2023-11-25T22:32:11;1018;;;7.65;64.72
64230;BME280;50547;49.498;0.092;2023-11-25T22:34:40;1018;;;7.66;64.76
64230;BME280;50547;49.498;0.092;2023-11-25T22:37:09;1018;;;7.68;64.75
64230;BME280;50547;49.498;0.092;2023-11-25T22:39:38;1018;;;7.83;64.63
64230;BME280;50547;49.498;0.092;2023-11-25T22:42:07;1018;;;7.92;64.11
64230;BME280;50547;49.498;0.092;2023-11-25T22:44:36;1018;;;7.87;64.12
64230;BME280;50547;49.498;0.092;2023-11-25T22:47:06;1018;;;7.84;63.93
64230;BME280;50547;49.498;0.092;2023-11-25T22:49:35;1018;;;7.71;64.26
64230;BME280;50547;49.498;0.092;2023-11-25T22:52:04;1018;;;7.67;64.60
64230;BME280;50547;49.498;0.092;2023-11-25T22:54:33;1018;;;7.63;64.63
64230;BME280;50547;49.498;0.092;2023-11-25T22:57:02;1018;;;7.70;64.53
64230;BME280;50547;49.498;0.092;2023-11-25T22:59:31;1018;;;7.76;64.25
64230;BME280;50547;49.498;0.092;2023-11-25T23:02:01;1018;;;7.82;63.94
64230;BME280;50547;49.498;0.092;2023-11-25T23:04:30;1017;;;7.96;63.73
64230;BME280;50547;49.498;0.092;2023-11-25T23:06:59;1017;;;8.04;63.43
64230;BME280;50547;49.498;0.092;2023-11-25T23:09:28;1017;;;8.02;63.52
64230;BME280;50547;49.498;0.092;2023-11-25T23:11:57;1017;;;8.02;63.86
64230;BME280;50547;49.498;0.092;2023-11-25T23:14:26;1017;;;8.04;63.75
64230;BME280;50547;49.498;0.092;2023-11-25T23:16:55;1017;;;7.99;63.86
64230;BME280;50547;49.498;0.092;2023-11-25T23:19:25;1017;;;7.89;64.67
64230;BME280;50547;49.498;0.092;2023-11-25T23:21:54;1017;;;7.50;65.69
64230;BME280;50547;49.498;0.092;2023-11-25T23:24:23;1017;;;7.51;65.80
64230;BME280;50547;49.498;0.092;2023-11-25T23:26:52;1017;;;7.39;66.43
64230;BME280;50547;49.498;0.092;2023-11-25T23:29:21;1017;;;7.18;67.25
64230;BME280;50547;49.498;0.092;2023-11-25T23:31:50;1017;;;6.91;67.97
64230;BME280;50547;49.498;0.092;2023-11-25T23:34:19;1017;;;6.90;68.40
64230;BME280;50547;49.498;0.092;2023-11-25T23:36:45;1017;;;6.75;68.88
64230;BME280;50547;49.498;0.092;2023-11-25T23:39:14;1017;;;6.71;69.16
64230;BME280;50547;49.498;0.092;2023-11-25T23:41:43;1017;;;6.65;69.27
64230;BME280;50547;49.498;0.092;2023-11-25T23:44:12;1017;;;6.59;69.61
64230;BME280;50547;49.498;0.092;2023-11-25T23:46:41;1017;;;6.69;69.44
64230;BME280;50547;49.498;0.092;2023-11-25T23:49:10;1017;;;6.83;69.32
64230;BME280;50547;49.498;0.092;2023-11-25T23:51:40;1017;;;7.05;68.80
64230;BME280;50547;49.498;0.092;2023-11-25T23:54:09;1017;;;7.02;68.99
64230;BME280;50547;49.498;0.092;2023-11-25T23:56:38;1017;;;6.95;69.32
64230;BME280;50547;49.498;0.092;2023-11-25T23:59:07;1017;;;7.18;69.16
